Time;durP1;ratioP1;P1;durP2;ratioP2;P2;SDS_P1;SDS_P2;PMS_P1;PMS_P2;Temp;Humidity;BMP_temperature;BMP_pressure;BME280_temperature;BME280_humidity;BME280_pressure;Samples;Min_cycle;Max_cycle;Signal;HPM_P1;HPM_P2
2022/06/13 00:01:09;;;;;;;7.55;2.90;;;;;;;14.09;72.00;101453.50;5014624;28;20035;-81
2022/06/13 00:03:35;;;;;;;10.77;3.40;;;;;;;14.03;72.31;101463.22;5014516;28;20036;-81
2022/06/13 00:06:00;;;;;;;9.63;3.10;;;;;;;14.01;72.79;101457.13;4998054;28;20030;-81
2022/06/13 00:08:26;;;;;;;10.55;4.00;;;;;;;14.01;72.33;101459.75;4997698;28;20606;-81
2022/06/13 00:10:52;;;;;;;9.10;3.28;;;;;;;14.01;72.77;101449.25;4998113;28;20048;-81
2022/06/13 00:13:17;;;;;;;7.97;3.45;;;;;;;13.98;72.90;101446.69;5014493;28;20029;-81
2022/06/13 00:15:43;;;;;;;10.20;3.50;;;;;;;13.99;73.44;101444.94;5014333;28;20066;-81
2022/06/13 00:18:08;;;;;;;9.05;3.47;;;;;;;13.96;73.11;101456.38;4997595;28;20112;-81
2022/06/13 00:20:33;;;;;;;8.18;3.05;;;;;;;13.96;72.76;101451.13;5014184;28;20033;-81
2022/06/13 00:22:59;;;;;;;8.18;3.38;;;;;;;13.96;72.41;101443.25;4998657;28;20119;-81
2022/06/13 00:25:24;;;;;;;7.68;3.20;;;;;;;13.95;72.03;101438.88;5018496;28;20022;-81
2022/06/13 00:27:50;;;;;;;7.35;3.45;;;;;;;13.93;72.29;101435.41;5017822;28;20021;-81
2022/06/13 00:30:15;;;;;;;5.57;2.60;;;;;;;13.89;73.18;101435.50;5018002;28;20083;-80
2022/06/13 00:32:40;;;;;;;9.27;3.05;;;;;;;13.88;73.44;101423.25;5018194;28;20499;-81
2022/06/13 00:35:07;;;;;;;9.70;3.47;;;;;;;13.85;73.13;101427.69;5018084;28;20037;-81
2022/06/13 00:37:32;;;;;;;7.88;3.88;;;;;;;13.86;72.29;101428.53;5017796;28;20116;-81
2022/06/13 00:39:57;;;;;;;13.05;3.65;;;;;;;13.82;72.92;101432.09;5001677;28;20431;-81
2022/06/13 00:42:25;;;;;;;8.63;3.22;;;;;;;13.81;73.51;101430.38;5001657;28;20017;-80
2022/06/13 00:45:14;;;;;;;9.57;3.30;;;;;;;13.78;73.36;101427.81;5001650;28;20053;-81
2022/06/13 00:47:41;;;;;;;9.27;3.10;;;;;;;13.75;73.26;101430.50;5001586;28;20017;-81
2022/06/13 00:50:09;;;;;;;8.77;3.10;;;;;;;13.74;73.27;101419.09;5017645;28;20425;-81
2022/06/13 00:52:40;;;;;;;4.53;3.05;;;;;;;13.72;73.35;101422.69;5017856;28;20446;-81
2022/06/13 00:55:10;;;;;;;6.53;2.92;;;;;;;13.72;73.32;101417.44;5017817;28;20483;-81
2022/06/13 00:57:35;;;;;;;7.88;3.45;;;;;;;13.71;74.02;101423.56;5001366;28;20487;-81
2022/06/13 01:00:07;;;;;;;7.57;3.00;;;;;;;13.70;73.60;101427.94;5017580;28;20025;-81
2022/06/13 01:02:32;;;;;;;8.88;3.40;;;;;;;13.69;73.77;101421.81;5017639;28;20025;-81
2022/06/13 01:04:58;;;;;;;9.90;3.85;;;;;;;13.68;73.99;101427.97;5017585;28;20053;-81
2022/06/13 01:07:24;;;;;;;7.32;3.05;;;;;;;13.66;73.74;101435.00;5001071;28;20516;-81
2022/06/13 01:12:35;;;;;;;11.50;3.08;;;;;;;13.66;73.43;101436.75;5020259;28;20054;-81
2022/06/13 01:15:25;;;;;;;7.70;2.95;;;;;;;13.64;74.04;101428.91;5017747;28;20036;-81
2022/06/13 01:18:05;;;;;;;10.20;4.13;;;;;;;13.61;73.78;101428.97;5017242;28;20060;-81
2022/06/13 01:21:05;;;;;;;13.88;3.53;;;;;;;13.61;73.30;101433.38;5017327;28;20021;-81
2022/06/13 01:23:51;;;;;;;6.47;3.30;;;;;;;13.55;73.47;101418.56;5016930;28;20486;-80
2022/06/13 01:26:20;;;;;;;9.15;3.40;;;;;;;13.57;73.53;101427.28;5016991;28;20371;-81
2022/06/13 01:28:51;;;;;;;9.68;3.72;;;;;;;13.56;74.43;101424.69;5016945;28;20358;-81
2022/06/13 01:31:39;;;;;;;6.65;3.38;;;;;;;13.50;74.05;101426.53;5017079;28;20025;-81
2022/06/13 01:34:13;;;;;;;7.15;3.08;;;;;;;13.47;74.38;101420.44;5016616;28;20053;-81
2022/06/13 01:37:03;;;;;;;11.15;3.60;;;;;;;13.45;74.47;101428.34;5016506;28;20040;-81
2022/06/13 01:39:34;;;;;;;5.38;3.22;;;;;;;13.44;74.98;101423.13;5016610;28;20044;-81
2022/06/13 01:42:10;;;;;;;11.05;3.88;;;;;;;13.39;74.32;101417.09;5034564;28;20025;-81
2022/06/13 01:45:09;;;;;;;8.73;3.67;;;;;;;13.37;74.57;101418.88;5016797;28;20051;-81
2022/06/13 01:47:40;;;;;;;8.52;4.00;;;;;;;13.37;75.26;101417.13;5016776;28;20056;-81
2022/06/13 01:50:17;;;;;;;12.82;4.00;;;;;;;13.38;74.95;101415.38;5034282;28;20029;-80
2022/06/13 01:53:07;;;;;;;8.60;3.72;;;;;;;13.34;75.58;101414.53;5016767;28;20425;-80
2022/06/13 01:55:38;;;;;;;10.18;3.53;;;;;;;13.30;74.87;101408.44;5000361;28;20433;-81
2022/06/13 01:58:17;;;;;;;10.48;3.50;;;;;;;13.26;74.71;101404.13;5016219;28;20064;-80
2022/06/13 02:00:48;;;;;;;9.82;4.00;;;;;;;13.25;75.04;101414.66;5016533;28;20390;-80
2022/06/13 02:03:39;;;;;;;8.43;4.15;;;;;;;13.24;75.30;101407.66;5016472;28;20025;-81
2022/06/13 02:06:09;;;;;;;7.18;4.00;;;;;;;13.24;76.04;101402.44;5016964;28;20053;-81
2022/06/13 02:08:44;;;;;;;10.82;3.97;;;;;;;13.23;76.08;101406.81;5016232;28;20676;-80
2022/06/13 02:11:28;;;;;;;10.05;4.30;;;;;;;13.24;74.76;101398.06;5016589;28;20021;-80
2022/06/13 02:14:04;;;;;;;6.07;3.83;;;;;;;13.23;74.54;101395.47;5016219;28;20026;-80
2022/06/13 02:16:42;;;;;;;6.63;3.72;;;;;;;13.23;74.82;101391.06;4999915;28;20288;-81
2022/06/13 02:19:16;;;;;;;8.15;3.70;;;;;;;13.19;75.10;101394.63;4999739;28;20030;-81
2022/06/13 02:21:52;;;;;;;7.88;3.83;;;;;;;13.15;75.92;101392.97;4999828;28;20380;-81
2022/06/13 02:24:22;;;;;;;7.35;3.90;;;;;;;13.14;75.20;101396.47;5016014;28;20036;-81
2022/06/13 02:26:51;;;;;;;10.18;4.35;;;;;;;13.14;75.31;101406.97;5014972;28;20026;-81
2022/06/13 02:29:30;;;;;;;12.15;4.30;;;;;;;13.14;74.82;101401.72;5015783;28;20057;-81
2022/06/13 02:32:04;;;;;;;10.05;5.03;;;;;;;13.14;74.70;101396.47;5015999;28;20060;-81
2022/06/13 02:34:42;;;;;;;11.23;4.30;;;;;;;13.09;76.14;101412.28;4999614;28;20025;-81
2022/06/13 02:37:18;;;;;;;10.07;4.22;;;;;;;13.08;75.48;101410.53;5015882;28;20178;-81
2022/06/13 02:39:54;;;;;;;10.40;3.95;;;;;;;13.10;75.44;101413.13;5015549;28;20029;-81
2022/06/13 02:42:31;;;;;;;9.35;3.85;;;;;;;13.09;74.99;101408.78;5015798;28;20036;-81
2022/06/13 02:45:02;;;;;;;5.70;4.00;;;;;;;13.06;75.41;101409.72;4999413;28;20064;-81
2022/06/13 02:47:38;;;;;;;7.85;4.03;;;;;;;13.04;75.07;101400.13;4999111;28;20532;-81
2022/06/13 02:50:14;;;;;;;14.00;4.32;;;;;;;13.02;74.98;101408.88;5015588;28;20167;-81
2022/06/13 02:52:48;;;;;;;9.40;3.88;;;;;;;13.03;74.67;101407.13;4999292;28;20112;-81
2022/06/13 02:55:15;;;;;;;12.30;3.95;;;;;;;13.01;74.50;101401.91;5015548;28;20403;-81
2022/06/13 02:57:49;;;;;;;8.95;4.05;;;;;;;13.00;75.06;101394.06;5015262;28;20390;-81
2022/06/13 03:00:23;;;;;;;10.05;3.67;;;;;;;12.97;75.71;101394.13;5015423;28;20475;-80
2022/06/13 03:02:58;;;;;;;10.77;4.32;;;;;;;12.98;75.11;101388.84;5015189;28;20439;-81
2022/06/13 03:05:48;;;;;;;8.13;4.25;;;;;;;12.95;75.93;101388.91;5015356;28;20053;-80
2022/06/13 03:08:34;;;;;;;8.43;3.97;;;;;;;12.97;75.45;101376.63;5032935;28;20368;-81
2022/06/13 03:11:29;;;;;;;8.32;3.78;;;;;;;13.00;74.67;101363.44;5015181;28;20033;-80
2022/06/13 03:14:04;;;;;;;13.57;3.92;;;;;;;13.01;74.96;101362.56;4998881;28;20064;-81
2022/06/13 03:17:12;;;;;;;12.35;4.13;;;;;;;13.05;75.19;101365.13;5015213;28;20540;-81
2022/06/13 03:19:53;;;;;;;8.40;3.92;;;;;;;13.04;75.36;101355.56;4999164;28;20080;-81
2022/06/13 03:22:33;;;;;;;5.82;3.47;;;;;;;13.04;75.69;101358.19;4999004;28;20052;-80
2022/06/13 03:25:00;;;;;;;8.02;3.45;;;;;;;13.05;75.54;101360.78;5033194;28;20534;-80
2022/06/13 03:27:29;;;;;;;8.23;3.25;;;;;;;13.07;74.92;101361.59;4998466;28;20025;-80
2022/06/13 03:30:00;;;;;;;10.65;3.75;;;;;;;13.07;75.19;101366.00;5014757;28;20068;-81
2022/06/13 03:32:30;;;;;;;10.00;3.75;;;;;;;13.07;75.58;101373.84;5015030;28;20425;-81
2022/06/13 03:34:59;;;;;;;7.40;3.75;;;;;;;13.08;75.30;101380.84;5014899;28;20049;-81
2022/06/13 03:37:30;;;;;;;7.32;3.55;;;;;;;13.09;75.33;101385.16;5014784;28;20029;-81
2022/06/13 03:40:03;;;;;;;9.95;3.67;;;;;;;13.12;74.25;101387.78;5049604;22;20035;-79
2022/06/13 03:42:40;;;;;;;10.25;3.88;;;;;;;13.11;74.40;101388.66;5079427;28;20019;-81
2022/06/13 03:45:26;;;;;;;9.75;4.00;;;;;;;13.12;74.28;101387.78;5078850;28;20051;-81
2022/06/13 03:48:03;;;;;;;12.20;3.30;;;;;;;13.15;74.86;101387.72;5079236;28;20058;-79
2022/06/13 03:50:33;;;;;;;8.20;3.67;;;;;;;13.16;74.16;101390.31;5078847;28;20126;-81
2022/06/13 03:53:07;;;;;;;10.50;3.35;;;;;;;13.20;74.18;101391.13;5079318;28;20020;-82
2022/06/13 03:56:06;;;;;;;6.28;3.30;;;;;;;13.17;74.25;101385.91;5079546;28;20032;-81
2022/06/13 03:58:38;;;;;;;8.13;3.28;;;;;;;13.16;74.58;101389.44;5094517;28;20038;-79
2022/06/13 04:01:42;;;;;;;8.05;3.65;;;;;;;13.18;74.43;101383.28;5079858;28;20023;-79
2022/06/13 04:04:27;;;;;;;6.53;2.88;;;;;;;13.21;74.64;101392.00;5037708;28;20038;-81
2022/06/13 04:06:54;;;;;;;6.55;2.97;;;;;;;13.25;74.45;101383.19;5078981;28;20016;-81
2022/06/13 04:09:48;;;;;;;14.07;3.70;;;;;;;13.25;74.63;101383.19;5080406;28;20034;-81
2022/06/13 04:12:31;;;;;;;4.57;3.35;;;;;;;13.27;73.53;101374.41;5076945;28;20454;-81
2022/06/13 04:15:15;;;;;;;5.88;2.80;;;;;;;13.25;74.81;101370.94;5095990;28;20110;-81
2022/06/13 04:18:02;;;;;;;12.77;3.58;;;;;;;13.25;74.08;101378.81;5114209;28;20388;-81
2022/06/13 04:20:35;;;;;;;10.27;2.97;;;;;;;13.27;73.72;101389.28;5096157;28;20523;-81
2022/06/13 04:23:21;;;;;;;7.18;3.05;;;;;;;13.25;73.78;101386.69;5079144;28;20074;-81
2022/06/13 04:25:57;;;;;;;12.73;3.75;;;;;;;13.24;72.35;101387.56;5079438;28;20035;-82
2022/06/13 04:28:39;;;;;;;9.02;2.88;;;;;;;13.27;72.74;101392.75;5078715;28;20100;-82
2022/06/13 04:31:07;;;;;;;8.35;3.30;;;;;;;13.28;72.66;101383.13;5078738;28;20031;-81
2022/06/13 04:33:38;;;;;;;10.52;3.17;;;;;;;13.28;71.77;101380.50;5079039;28;20042;-81
2022/06/13 04:36:05;;;;;;;12.10;3.38;;;;;;;13.26;71.78;101377.91;5079973;28;20442;-81
2022/06/13 04:38:31;;;;;;;7.85;2.72;;;;;;;13.21;72.94;101385.00;5078631;28;20065;-81
2022/06/13 04:41:00;;;;;;;8.65;2.83;;;;;;;13.21;71.78;101387.63;5095960;28;20024;-82
2022/06/13 04:43:33;;;;;;;9.30;3.03;;;;;;;13.19;72.71;101392.88;5078849;28;20023;-81
2022/06/13 04:46:03;;;;;;;8.52;2.88;;;;;;;13.22;71.73;101389.34;5078207;28;20027;-81
2022/06/13 04:48:30;;;;;;;9.48;3.45;;;;;;;13.24;71.08;101392.81;5078590;28;20028;-82
2022/06/13 04:51:01;;;;;;;9.60;3.67;;;;;;;13.23;70.90;101383.22;5079807;28;20027;-81
2022/06/13 04:53:36;;;;;;;7.63;3.40;;;;;;;13.21;70.53;101392.88;5079896;28;20081;-81
2022/06/13 04:56:01;;;;;;;7.78;3.20;;;;;;;13.26;68.92;101391.03;5079238;28;20046;-81
2022/06/13 04:58:35;;;;;;;8.23;3.25;;;;;;;13.28;70.02;101399.75;5078567;28;20055;-82
2022/06/13 05:01:12;;;;;;;7.90;2.87;;;;;;;13.27;69.80;101397.16;5078715;28;20115;-81
2022/06/13 05:03:41;;;;;;;7.78;2.90;;;;;;;13.32;69.26;101383.06;5078673;28;20027;-82
2022/06/13 05:06:15;;;;;;;6.35;2.55;;;;;;;13.34;69.23;101390.91;5079765;28;20026;-81
2022/06/13 05:08:41;;;;;;;6.97;2.65;;;;;;;13.34;68.69;101383.88;5079099;28;20019;-81
2022/06/13 05:11:10;;;;;;;7.60;2.88;;;;;;;13.38;68.57;101397.00;5082674;28;20061;-81
2022/06/13 05:13:35;;;;;;;7.80;2.70;;;;;;;13.45;67.77;101385.50;5082404;28;20118;-81
2022/06/13 05:16:28;;;;;;;4.97;2.40;;;;;;;13.44;67.58;101389.00;5081968;28;20549;-81
2022/06/13 05:19:15;;;;;;;4.57;2.50;;;;;;;13.44;68.52;101384.66;5099558;28;20028;-81
2022/06/13 05:21:55;;;;;;;9.10;2.38;;;;;;;13.50;67.80;101381.06;5098970;28;20026;-82
2022/06/13 05:24:45;;;;;;;6.28;2.42;;;;;;;13.53;67.78;101381.00;5082026;28;20022;-82
2022/06/13 05:27:11;;;;;;;6.35;2.53;;;;;;;13.56;68.10;101386.19;5081270;28;20038;-82
2022/06/13 05:29:36;;;;;;;4.47;2.47;;;;;;;13.56;68.47;101378.31;5098092;28;20481;-82
2022/06/13 05:32:05;;;;;;;6.90;2.97;;;;;;;13.55;67.92;101381.81;5081450;28;20024;-82
2022/06/13 05:34:35;;;;;;;8.77;2.92;;;;;;;13.57;68.53;101390.53;5081722;28;20023;-82
2022/06/13 05:37:01;;;;;;;9.80;2.90;;;;;;;13.54;68.94;101390.59;5081254;28;20098;-82
2022/06/13 05:39:27;;;;;;;7.45;3.08;;;;;;;13.55;68.59;101387.06;5082038;28;20027;-82
2022/06/13 05:41:53;;;;;;;6.90;2.67;;;;;;;13.55;68.61;101387.06;5081540;28;20053;-82
2022/06/13 05:44:18;;;;;;;10.93;3.00;;;;;;;13.57;69.49;101389.69;5081029;28;20032;-81
2022/06/13 05:46:44;;;;;;;10.10;3.47;;;;;;;13.64;69.02;101384.28;5081128;28;20506;-81
2022/06/13 05:49:11;;;;;;;8.55;2.75;;;;;;;13.66;69.15;101384.25;5097530;28;20023;-80
2022/06/13 05:51:36;;;;;;;7.10;3.05;;;;;;;13.70;69.86;101399.06;5098140;28;20115;-82
2022/06/13 05:54:02;;;;;;;6.80;2.92;;;;;;;13.71;69.71;101379.78;5081153;28;20457;-81
2022/06/13 05:56:27;;;;;;;10.10;3.35;;;;;;;13.74;69.58;101376.25;5081614;28;20042;-82
2022/06/13 05:58:53;;;;;;;10.75;3.75;;;;;;;13.75;69.36;101393.72;5080741;28;20023;-82
2022/06/13 06:01:19;;;;;;;7.28;3.03;;;;;;;13.80;69.48;101389.28;5080952;28;20055;-81
2022/06/13 06:03:47;;;;;;;6.60;3.00;;;;;;;13.84;69.47;101398.81;5080624;28;20024;-81
2022/06/13 06:06:22;;;;;;;7.65;3.03;;;;;;;13.86;69.41;101390.03;5081057;28;20055;-82
2022/06/13 06:08:48;;;;;;;6.85;3.20;;;;;;;13.86;70.54;101391.75;5080170;28;20512;-82
2022/06/13 06:11:13;;;;;;;11.25;3.63;;;;;;;13.88;69.47;101384.75;5081153;28;20035;-82
2022/06/13 06:13:39;;;;;;;8.60;3.20;;;;;;;13.89;70.30;101390.84;5080382;28;20026;-81
2022/06/13 06:16:05;;;;;;;10.13;3.58;;;;;;;13.97;68.95;101389.78;5080795;28;20043;-81
2022/06/13 06:18:31;;;;;;;7.00;2.92;;;;;;;13.98;70.26;101399.41;5080424;28;20066;-82
2022/06/13 06:20:56;;;;;;;7.57;2.85;;;;;;;14.03;69.39;101391.47;5096589;28;20039;-81
2022/06/13 06:23:22;;;;;;;7.85;3.58;;;;;;;14.12;70.59;101396.50;5080412;28;20400;-81
2022/06/13 06:25:48;;;;;;;11.38;3.40;;;;;;;14.20;70.04;101396.38;5080024;28;20114;-81
2022/06/13 06:28:22;;;;;;;6.75;3.50;;;;;;;14.26;69.29;101395.38;5080525;28;20020;-82
2022/06/13 06:30:48;;;;;;;9.55;4.10;;;;;;;14.30;69.27;101400.56;5080128;28;20016;-81
2022/06/13 06:33:14;;;;;;;5.40;3.38;;;;;;;14.35;69.37;101401.28;5079823;28;20054;-82
2022/06/13 06:35:40;;;;;;;8.93;3.65;;;;;;;14.36;69.77;101392.53;5079756;28;20066;-82
2022/06/13 06:38:06;;;;;;;7.53;3.55;;;;;;;14.39;70.30;101398.63;5079752;28;20435;-81
2022/06/13 06:40:32;;;;;;;8.43;3.65;;;;;;;14.44;68.51;101400.25;5079340;28;20032;-82
2022/06/13 06:42:57;;;;;;;9.13;3.33;;;;;;;14.48;69.27;101396.66;5079626;28;20015;-82
2022/06/13 06:45:24;;;;;;;7.45;3.55;;;;;;;14.52;69.21;101398.31;5079656;28;20028;-81
2022/06/13 06:47:50;;;;;;;10.05;3.17;;;;;;;14.58;69.14;101397.31;5079253;28;20496;-81
2022/06/13 06:50:18;;;;;;;7.13;3.38;;;;;;;14.57;69.20;101395.59;5079223;28;20023;-81
2022/06/13 06:52:44;;;;;;;13.65;3.13;;;;;;;14.62;68.79;101395.50;5079496;28;20477;-81
2022/06/13 07:00:41;;;;;;;7.25;3.00;;;;;;;14.67;68.32;101393.66;5098674;28;20038;-81
2022/06/13 07:03:06;;;;;;;7.18;3.42;;;;;;;14.73;67.98;101395.31;5079289;28;20027;-81
2022/06/13 07:05:31;;;;;;;11.02;3.42;;;;;;;14.72;67.89;101393.56;5079469;28;20164;-82
2022/06/13 07:07:57;;;;;;;7.13;2.97;;;;;;;14.66;67.93;101395.44;5078998;28;20427;-81
2022/06/13 07:10:22;;;;;;;7.47;2.88;;;;;;;14.69;67.89;101395.34;5079061;28;20034;-81
2022/06/13 07:12:47;;;;;;;4.55;2.60;;;;;;;14.73;68.70;101397.94;5079038;28;20020;-81
2022/06/13 07:15:14;;;;;;;8.23;3.72;;;;;;;14.79;68.02;101400.41;5079088;28;20020;-82
2022/06/13 07:17:40;;;;;;;10.75;3.80;;;;;;;14.81;68.18;101403.88;5095787;28;20522;-81
2022/06/13 07:20:06;;;;;;;8.15;3.80;;;;;;;14.88;67.26;101397.56;5079253;28;20039;-81
2022/06/13 07:22:31;;;;;;;6.13;3.13;;;;;;;14.90;66.50;101392.28;5078962;28;20572;-82
2022/06/13 07:24:56;;;;;;;9.00;3.30;;;;;;;14.91;66.11;101394.88;5079174;28;20118;-82
2022/06/13 07:27:22;;;;;;;8.07;3.13;;;;;;;14.92;66.17;101396.59;5078598;28;20476;-81
2022/06/13 07:29:47;;;;;;;8.23;3.08;;;;;;;14.95;64.36;101404.41;5095571;28;20464;-82
2022/06/13 07:32:21;;;;;;;6.22;3.15;;;;;;;14.90;66.16;101401.03;5095312;28;20077;-81
2022/06/13 07:34:48;;;;;;;9.35;2.97;;;;;;;14.95;64.43;101396.53;5095638;28;20102;-82
2022/06/13 07:38:16;;;;;;;9.05;3.70;;;;;;;14.92;64.83;101401.88;5078514;28;20070;-82
2022/06/13 07:40:04;;;;;;;6.80;3.22;;;;;;;14.84;66.30;101394.13;5098131;28;20039;-82
2022/06/13 07:42:35;;;;;;;7.07;3.47;;;;;;;14.85;66.69;101403.75;5078676;28;20028;-82
2022/06/13 07:45:00;;;;;;;9.00;3.47;;;;;;;14.87;66.73;101393.22;5078375;28;20068;-81
2022/06/13 07:47:26;;;;;;;7.90;3.63;;;;;;;14.95;66.58;101400.94;5078400;28;20019;-81
2022/06/13 07:49:52;;;;;;;5.45;3.00;;;;;;;15.03;66.03;101386.69;5078383;28;20019;-81
2022/06/13 07:52:17;;;;;;;6.15;3.17;;;;;;;15.14;66.10;101390.84;5078489;28;20019;-82
2022/06/13 07:54:43;;;;;;;9.43;3.22;;;;;;;15.21;65.30;101377.50;5078702;28;20024;-82
2022/06/13 07:57:09;;;;;;;5.30;3.13;;;;;;;15.30;65.30;101392.19;5078006;28;20032;-82
2022/06/13 07:59:34;;;;;;;9.38;2.83;;;;;;;15.36;64.04;101376.22;5078241;28;20063;-82
2022/06/13 08:02:01;;;;;;;9.23;3.20;;;;;;;15.42;64.25;101382.25;5077967;28;20036;-82
2022/06/13 08:04:28;;;;;;;4.57;3.08;;;;;;;15.38;62.92;101387.59;5077943;28;20051;-82
2022/06/13 08:06:53;;;;;;;5.32;2.50;;;;;;;15.32;63.87;101390.38;5078844;28;20384;-82
2022/06/13 08:09:19;;;;;;;5.18;2.45;;;;;;;15.27;64.10;101402.81;5077992;28;20028;-81
2022/06/13 08:11:50;;;;;;;5.00;2.75;;;;;;;15.14;67.42;101438.19;5078317;28;20027;-81
2022/06/13 08:14:15;;;;;;;6.03;2.22;;;;;;;14.87;74.12;101445.81;5078665;28;20038;-81
2022/06/13 08:16:41;;;;;;;13.18;3.42;;;;;;;14.37;77.33;101467.00;5079875;28;20023;-84
2022/06/13 08:19:07;;;;;;;8.30;2.65;;;;;;;13.78;79.07;101447.03;5096247;28;20028;-85
2022/06/13 08:21:35;;;;;;;3.53;1.23;;;;;;;13.29;81.35;101432.97;5078609;28;20024;-85
2022/06/13 08:24:01;;;;;;;3.72;1.75;;;;;;;12.93;83.98;101430.00;5078019;28;20030;-84
2022/06/13 08:26:27;;;;;;;2.42;1.63;;;;;;;12.68;86.04;101440.81;5077664;28;20385;-84
2022/06/13 08:28:53;;;;;;;3.90;1.67;;;;;;;12.59;88.69;101440.94;5077732;28;20030;-84
2022/06/13 08:31:20;;;;;;;3.60;1.42;;;;;;;12.61;90.04;101447.03;5094928;28;20477;-84
2022/06/13 08:33:45;;;;;;;2.63;1.27;;;;;;;12.65;90.55;101451.34;5078293;28;20083;-84
2022/06/13 08:36:11;;;;;;;1.77;1.38;;;;;;;12.70;91.53;101463.53;5078343;28;20019;-83
2022/06/13 08:38:38;;;;;;;1.88;1.50;;;;;;;12.78;92.68;101466.91;5078118;28;20032;-83
2022/06/13 08:41:13;;;;;;;2.28;1.58;;;;;;;12.89;92.95;101470.25;5077821;28;20051;-83
2022/06/13 08:43:51;;;;;;;1.73;1.63;;;;;;;12.98;93.39;101464.88;5095136;28;20031;-83
2022/06/13 08:46:26;;;;;;;2.53;2.10;;;;;;;13.13;94.28;101455.94;5099141;28;20019;-82
2022/06/13 08:49:06;;;;;;;2.55;2.35;;;;;;;13.31;94.71;101459.19;5082412;28;20061;-80
2022/06/13 08:51:43;;;;;;;3.10;2.63;;;;;;;13.39;94.46;101461.69;5083350;28;20019;-81
2022/06/13 08:54:10;;;;;;;4.50;2.60;;;;;;;13.34;93.43;101473.09;5086438;28;20103;-83
2022/06/13 08:56:36;;;;;;;3.80;2.67;;;;;;;13.29;93.41;101472.31;5082191;28;20028;-82
2022/06/13 08:59:23;;;;;;;2.53;2.33;;;;;;;13.24;93.07;101476.78;5081875;28;20494;-83
2022/06/13 09:01:54;;;;;;;2.70;2.50;;;;;;;13.23;93.75;101475.03;5083666;28;20023;-83
2022/06/13 09:04:30;;;;;;;2.63;2.42;;;;;;;13.22;94.83;101473.28;5081989;28;20085;-83
2022/06/13 09:07:30;;;;;;;2.28;2.15;;;;;;;13.23;94.88;101468.94;5082226;28;20024;-83
2022/06/13 09:10:04;;;;;;;2.53;2.33;;;;;;;13.19;94.51;101460.22;5048805;28;20404;-83
2022/06/13 09:12:45;;;;;;;;;;;;;;;13.25;94.14;101459.25;5082461;28;20450;-82
2022/06/13 09:15:17;;;;;;;2.05;1.85;;;;;;;13.21;93.76;101460.19;5098562;28;19908;-83
2022/06/13 09:18:01;;;;;;;2.20;1.90;;;;;;;13.22;94.48;101456.69;5081528;28;20511;-83
2022/06/13 09:20:40;;;;;;;1.88;1.77;;;;;;;13.23;94.45;101463.69;5081468;28;20051;-83
2022/06/13 09:23:15;;;;;;;1.50;1.40;;;;;;;13.21;94.86;101457.56;5081866;28;20023;-83
2022/06/13 09:25:49;;;;;;;1.85;1.75;;;;;;;13.22;95.16;101460.16;5081862;28;20023;-83
2022/06/13 09:28:43;;;;;;;2.10;1.40;;;;;;;13.23;94.74;101464.53;5081258;28;20286;-83
2022/06/13 09:31:15;;;;;;;3.40;1.80;;;;;;;13.24;94.22;101468.91;5095008;28;20031;-83
2022/06/13 09:33:52;;;;;;;3.40;1.50;;;;;;;13.35;94.36;101469.63;5081514;28;20019;-82
2022/06/13 09:36:21;;;;;;;1.92;1.83;;;;;;;13.42;95.00;101467.78;5081376;28;20189;-83
2022/06/13 09:38:58;;;;;;;5.35;2.00;;;;;;;13.47;93.65;101467.69;5098176;28;20015;-83
2022/06/13 09:41:44;;;;;;;2.42;1.58;;;;;;;13.49;91.78;101463.28;5099536;28;20481;-84
2022/06/13 09:44:28;;;;;;;1.92;1.65;;;;;;;13.54;93.01;101469.34;5083339;28;20046;-84
2022/06/13 09:47:00;;;;;;;3.13;1.60;;;;;;;13.60;93.53;101473.63;5099605;28;20081;-85
2022/06/13 09:49:36;;;;;;;2.70;1.75;;;;;;;13.64;94.33;101460.41;5099205;28;20027;-84
2022/06/13 09:52:24;;;;;;;1.98;1.88;;;;;;;13.73;94.38;101471.66;5100275;28;20076;-84
2022/06/13 09:55:24;;;;;;;2.30;1.40;;;;;;;13.72;90.49;101465.53;5082538;28;20020;-84
2022/06/13 09:58:00;;;;;;;1.58;1.45;;;;;;;13.68;91.78;101467.34;5082432;28;20027;-84
2022/06/13 10:00:46;;;;;;;2.67;1.23;;;;;;;13.62;92.06;101475.34;5081920;28;20400;-84
2022/06/13 10:03:32;;;;;;;1.20;1.10;;;;;;;13.59;92.15;101472.75;5117613;28;20055;-84
2022/06/13 10:06:05;;;;;;;2.78;1.00;;;;;;;13.56;91.82;101472.78;5088011;28;20036;-84
2022/06/13 10:08:46;;;;;;;0.80;0.80;;;;;;;13.55;90.89;101478.94;5082017;28;20106;-84
2022/06/13 10:11:49;;;;;;;1.67;1.02;;;;;;;13.56;91.40;101472.78;5098622;28;20024;-85
2022/06/13 10:14:26;;;;;;;1.23;1.00;;;;;;;13.61;89.32;101472.75;5118225;28;20052;-84
2022/06/13 10:16:58;;;;;;;2.35;1.10;;;;;;;13.60;89.31;101471.84;5100105;28;20129;-85
2022/06/13 10:20:01;;;;;;;3.85;1.42;;;;;;;13.64;90.60;101459.56;5099411;28;20099;-84
2022/06/13 10:22:46;;;;;;;0.68;0.68;;;;;;;13.71;91.19;101455.91;5100359;28;20396;-84
2022/06/13 10:25:33;;;;;;;1.33;0.90;;;;;;;13.80;90.43;101470.66;5083348;28;20134;-85
2022/06/13 10:28:36;;;;;;;0.98;0.90;;;;;;;13.95;89.27;101459.88;5098831;28;20020;-85
2022/06/13 10:31:27;;;;;;;1.00;0.80;;;;;;;14.08;89.19;101460.50;5099582;28;20492;-85
2022/06/13 10:34:07;;;;;;;1.05;0.90;;;;;;;14.15;89.72;101463.88;5099396;28;20442;-85
2022/06/13 10:36:39;;;;;;;1.95;1.00;;;;;;;14.14;88.79;101464.81;5098910;28;20035;-84
2022/06/13 10:39:09;;;;;;;7.55;2.00;;;;;;;14.06;89.40;101492.94;5081443;28;20091;-85
2022/06/13 10:41:39;;;;;;;2.58;1.13;;;;;;;13.92;89.83;101487.94;5081023;28;20035;-85
2022/06/13 10:44:08;;;;;;;1.30;0.65;;;;;;;13.74;91.00;101491.75;5081149;28;20059;-85
2022/06/13 10:46:33;;;;;;;1.40;0.95;;;;;;;13.60;92.39;101490.22;5098771;28;20057;-84
2022/06/13 10:49:18;;;;;;;1.27;0.50;;;;;;;13.48;93.51;101490.44;5081282;28;20115;-85
2022/06/13 10:51:44;;;;;;;;;;;;;;;13.42;94.58;101486.16;5098711;28;20080;-85
2022/06/13 10:54:13;;;;;;;0.40;0.40;;;;;;;13.45;93.96;101487.84;5081498;28;19911;-84
2022/06/13 10:56:46;;;;;;;1.00;0.60;;;;;;;13.47;94.79;101491.31;5080860;28;20080;-85
2022/06/13 10:59:29;;;;;;;2.50;1.42;;;;;;;13.52;95.75;101477.25;5098011;28;20397;-84
2022/06/13 11:02:00;;;;;;;0.88;0.80;;;;;;;13.57;95.28;101485.03;5097888;28;20366;-84
2022/06/13 11:04:29;;;;;;;1.77;1.05;;;;;;;13.67;95.81;101472.63;5082040;28;20039;-84
2022/06/13 11:06:58;;;;;;;1.05;0.90;;;;;;;13.74;95.25;101481.25;5081107;28;20480;-84
2022/06/13 11:09:36;;;;;;;1.50;1.15;;;;;;;13.84;96.08;101472.34;5080938;28;20028;-84
2022/06/13 11:12:05;;;;;;;2.72;1.17;;;;;;;13.93;96.00;101474.78;5081232;28;20019;-84
2022/06/13 11:14:37;;;;;;;1.20;1.20;;;;;;;14.05;96.70;101468.47;5080993;28;20081;-84
2022/06/13 11:22:40;;;;;;;2.20;1.23;;;;;;;14.41;93.32;101467.78;5100908;28;20035;-84
2022/06/13 11:25:35;;;;;;;1.90;1.00;;;;;;;14.56;93.30;101464.88;5081114;28;20166;-84
2022/06/13 11:28:03;;;;;;;1.05;0.90;;;;;;;14.60;92.28;101474.41;5063317;28;20028;-84
2022/06/13 11:30:38;;;;;;;3.75;1.05;;;;;;;14.52;90.64;101502.63;5097242;28;20027;-84
2022/06/13 11:33:03;;;;;;;;;;;;;;;14.35;90.09;101540.59;5097227;28;20028;-84
2022/06/13 11:35:30;;;;;;;2.47;0.77;;;;;;;13.82;85.95;101531.88;5095379;28;20380;-86
2022/06/13 11:38:14;;;;;;;0.73;0.40;;;;;;;13.30;87.95;101529.13;5094742;28;20031;-86
2022/06/13 11:40:40;;;;;;;1.58;0.40;;;;;;;12.93;90.28;101527.00;5077901;28;20031;-85
2022/06/13 11:43:22;;;;;;;0.68;0.40;;;;;;;12.80;92.83;101522.81;5078475;28;20168;-86
2022/06/13 11:46:00;;;;;;;0.93;0.50;;;;;;;12.71;93.99;101522.91;5078675;28;20126;-85
2022/06/13 11:48:27;;;;;;;2.22;0.60;;;;;;;12.67;94.94;101517.72;5078732;28;20027;-85
2022/06/13 11:50:55;;;;;;;0.60;0.47;;;;;;;12.68;96.31;101516.84;5078905;28;20031;-85
2022/06/13 11:53:36;;;;;;;2.60;0.55;;;;;;;12.75;96.92;101524.59;5079417;28;20349;-84
2022/06/13 11:56:06;;;;;;;4.72;0.75;;;;;;;12.89;97.26;101522.69;5081516;28;20393;-84
2022/06/13 11:58:33;;;;;;;1.33;1.10;;;;;;;13.01;97.69;101511.19;5079286;28;20437;-84
2022/06/13 12:01:18;;;;;;;2.63;0.88;;;;;;;13.21;98.58;101512.66;5079234;28;20019;-84
2022/06/13 12:03:58;;;;;;;2.47;1.35;;;;;;;13.43;100.00;101505.38;5096236;28;20055;-83
2022/06/13 12:06:24;;;;;;;3.78;1.63;;;;;;;13.62;100.00;101514.72;5079570;28;20077;-83